sensor_id;sensor_type;location;lat;lon;timestamp;pressure;altitude;pressure_sealevel;temperature
63009;BMP280;49099;28.428;-16.488;2022-12-18T00:03:46;98812.66;;;19.29
63009;BMP280;49099;28.428;-16.488;2022-12-18T00:06:14;98822.13;;;19.30
63009;BMP280;49099;28.428;-16.488;2022-12-18T00:08:43;98806.97;;;19.36
63009;BMP280;49099;28.428;-16.488;2022-12-18T00:11:16;98810.97;;;19.46
63009;BMP280;49099;28.428;-16.488;2022-12-18T00:13:44;98807.78;;;19.56
63009;BMP280;49099;28.428;-16.488;2022-12-18T00:16:19;98805.78;;;19.57
63009;BMP280;49099;28.428;-16.488;2022-12-18T00:18:48;98806.28;;;19.55
63009;BMP280;49099;28.428;-16.488;2022-12-18T00:21:16;98809.88;;;19.52
63009;BMP280;49099;28.428;-16.488;2022-12-18T00:23:45;98810.78;;;19.49
63009;BMP280;49099;28.428;-16.488;2022-12-18T00:26:15;98809.88;;;19.52
63009;BMP280;49099;28.428;-16.488;2022-12-18T00:28:43;98815.91;;;19.53
63009;BMP280;49099;28.428;-16.488;2022-12-18T00:31:13;98810.59;;;19.53
63009;BMP280;49099;28.428;-16.488;2022-12-18T00:33:41;98811.53;;;19.50
63009;BMP280;49099;28.428;-16.488;2022-12-18T00:38:38;98801.59;;;19.50
63009;BMP280;49099;28.428;-16.488;2022-12-18T00:41:07;98803.84;;;19.52
63009;BMP280;49099;28.428;-16.488;2022-12-18T00:43:35;98790.94;;;19.50
63009;BMP280;49099;28.428;-16.488;2022-12-18T00:46:03;98784.16;;;19.49
63009;BMP280;49099;28.428;-16.488;2022-12-18T00:48:30;98790.50;;;19.52
63009;BMP280;49099;28.428;-16.488;2022-12-18T00:50:57;98785.44;;;19.54
63009;BMP280;49099;28.428;-16.488;2022-12-18T00:53:25;98786.47;;;19.56
63009;BMP280;49099;28.428;-16.488;2022-12-18T00:55:52;98784.03;;;19.58
63009;BMP280;49099;28.428;-16.488;2022-12-18T00:58:19;98772.94;;;19.60
63009;BMP280;49099;28.428;-16.488;2022-12-18T01:00:46;98776.88;;;19.64
63009;BMP280;49099;28.428;-16.488;2022-12-18T01:03:14;98780.81;;;19.69
63009;BMP280;49099;28.428;-16.488;2022-12-18T01:05:41;98772.34;;;19.70
63009;BMP280;49099;28.428;-16.488;2022-12-18T01:08:09;98775.72;;;19.71
63009;BMP280;49099;28.428;-16.488;2022-12-18T01:10:36;98767.72;;;19.71
63009;BMP280;49099;28.428;-16.488;2022-12-18T01:13:03;98773.91;;;19.77
63009;BMP280;49099;28.428;-16.488;2022-12-18T01:15:30;98772.50;;;19.81
63009;BMP280;49099;28.428;-16.488;2022-12-18T01:17:57;98770.03;;;19.78
63009;BMP280;49099;28.428;-16.488;2022-12-18T01:20:24;98769.75;;;19.76
63009;BMP280;49099;28.428;-16.488;2022-12-18T01:22:51;98773.63;;;19.75
63009;BMP280;49099;28.428;-16.488;2022-12-18T01:25:18;98771.97;;;19.77
63009;BMP280;49099;28.428;-16.488;2022-12-18T01:27:45;98781.34;;;19.73
63009;BMP280;49099;28.428;-16.488;2022-12-18T01:30:12;98781.06;;;19.71
63009;BMP280;49099;28.428;-16.488;2022-12-18T01:32:40;98779.06;;;19.66
63009;BMP280;49099;28.428;-16.488;2022-12-18T01:35:07;98782.66;;;19.63
63009;BMP280;49099;28.428;-16.488;2022-12-18T01:37:34;98772.94;;;19.60
63009;BMP280;49099;28.428;-16.488;2022-12-18T01:40:01;98772.66;;;19.58
63009;BMP280;49099;28.428;-16.488;2022-12-18T01:42:28;98774.31;;;19.55
63009;BMP280;49099;28.428;-16.488;2022-12-18T01:52:48;98768.75;;;19.39
63009;BMP280;49099;28.428;-16.488;2022-12-18T01:55:19;98772.78;;;19.34
63009;BMP280;49099;28.428;-16.488;2022-12-18T01:57:47;98763.53;;;19.30
63009;BMP280;49099;28.428;-16.488;2022-12-18T02:00:18;98760.84;;;19.30
63009;BMP280;49099;28.428;-16.488;2022-12-18T02:02:46;98758.66;;;19.28
63009;BMP280;49099;28.428;-16.488;2022-12-18T02:05:17;98763.97;;;19.28
63009;BMP280;49099;28.428;-16.488;2022-12-18T02:08:03;98761.78;;;19.27
63009;BMP280;49099;28.428;-16.488;2022-12-18T02:16:29;98760.03;;;19.24
63009;BMP280;49099;28.428;-16.488;2022-12-18T02:19:06;98753.44;;;19.19
63009;BMP280;49099;28.428;-16.488;2022-12-18T02:22:00;98763.09;;;19.17
63009;BMP280;49099;28.428;-16.488;2022-12-18T02:24:40;98762.34;;;19.16
63009;BMP280;49099;28.428;-16.488;2022-12-18T02:27:12;98753.06;;;19.12
63009;BMP280;49099;28.428;-16.488;2022-12-18T02:29:52;98760.31;;;19.11
63009;BMP280;49099;28.428;-16.488;2022-12-18T02:32:27;98752.16;;;19.15
63009;BMP280;49099;28.428;-16.488;2022-12-18T02:34:56;98758.00;;;19.19
63009;BMP280;49099;28.428;-16.488;2022-12-18T02:37:25;98759.56;;;19.25
63009;BMP280;49099;28.428;-16.488;2022-12-18T02:39:56;98751.13;;;19.27
63009;BMP280;49099;28.428;-16.488;2022-12-18T02:42:24;98747.75;;;19.26
63009;BMP280;49099;28.428;-16.488;2022-12-18T02:44:57;98753.50;;;19.25
63009;BMP280;49099;28.428;-16.488;2022-12-18T02:47:28;98746.72;;;19.24
63009;BMP280;49099;28.428;-16.488;2022-12-18T02:55:33;98757.56;;;19.20
63009;BMP280;49099;28.428;-16.488;2022-12-18T03:01:28;98751.91;;;19.13
63009;BMP280;49099;28.428;-16.488;2022-12-18T03:03:59;98747.75;;;19.12
63009;BMP280;49099;28.428;-16.488;2022-12-18T03:06:31;98735.91;;;19.13
63009;BMP280;49099;28.428;-16.488;2022-12-18T03:09:06;98742.41;;;19.12
63009;BMP280;49099;28.428;-16.488;2022-12-18T03:11:37;98738.72;;;19.09
63009;BMP280;49099;28.428;-16.488;2022-12-18T03:14:25;98744.53;;;19.08
63009;BMP280;49099;28.428;-16.488;2022-12-18T03:16:59;98746.72;;;19.09
63009;BMP280;49099;28.428;-16.488;2022-12-18T03:19:29;98747.94;;;19.08
63009;BMP280;49099;28.428;-16.488;2022-12-18T03:22:00;98745.28;;;19.08
63009;BMP280;49099;28.428;-16.488;2022-12-18T03:24:29;98739.22;;;19.08
63009;BMP280;49099;28.428;-16.488;2022-12-18T03:27:01;98751.31;;;19.09
63009;BMP280;49099;28.428;-16.488;2022-12-18T03:29:51;98744.53;;;19.08
63009;BMP280;49099;28.428;-16.488;2022-12-18T03:32:31;98746.56;;;19.13
63009;BMP280;49099;28.428;-16.488;2022-12-18T03:35:03;98761.59;;;19.16
63009;BMP280;49099;28.428;-16.488;2022-12-18T03:37:32;98760.97;;;19.21
63009;BMP280;49099;28.428;-16.488;2022-12-18T03:39:59;98761.22;;;19.23
63009;BMP280;49099;28.428;-16.488;2022-12-18T03:42:36;98759.94;;;19.18
63009;BMP280;49099;28.428;-16.488;2022-12-18T03:45:09;98760.13;;;19.15
63009;BMP280;49099;28.428;-16.488;2022-12-18T03:55:57;98768.75;;;19.10
63009;BMP280;49099;28.428;-16.488;2022-12-18T03:58:27;98780.91;;;19.11
63009;BMP280;49099;28.428;-16.488;2022-12-18T04:00:58;98768.75;;;19.10
63009;BMP280;49099;28.428;-16.488;2022-12-18T04:03:28;98779.81;;;19.17
63009;BMP280;49099;28.428;-16.488;2022-12-18T04:05:57;98782.50;;;19.23
63009;BMP280;49099;28.428;-16.488;2022-12-18T04:08:26;98787.22;;;19.28
63009;BMP280;49099;28.428;-16.488;2022-12-18T04:10:53;98786.03;;;19.29
63009;BMP280;49099;28.428;-16.488;2022-12-18T04:13:27;98786.28;;;19.31
63009;BMP280;49099;28.428;-16.488;2022-12-18T04:15:54;98782.41;;;19.32
63009;BMP280;49099;28.428;-16.488;2022-12-18T04:18:22;98788.78;;;19.34
63009;BMP280;49099;28.428;-16.488;2022-12-18T04:20:49;98793.63;;;19.36
63009;BMP280;49099;28.428;-16.488;2022-12-18T04:23:16;98796.13;;;19.39
63009;BMP280;49099;28.428;-16.488;2022-12-18T04:25:43;98792.25;;;19.40
63009;BMP280;49099;28.428;-16.488;2022-12-18T04:28:10;98791.50;;;19.40
63009;BMP280;49099;28.428;-16.488;2022-12-18T04:30:37;98789.34;;;19.38
63009;BMP280;49099;28.428;-16.488;2022-12-18T04:33:09;98784.72;;;19.39
63009;BMP280;49099;28.428;-16.488;2022-12-18T04:35:36;98780.59;;;19.38
63009;BMP280;49099;28.428;-16.488;2022-12-18T04:38:05;98783.69;;;19.36
63009;BMP280;49099;28.428;-16.488;2022-12-18T04:40:33;98783.25;;;19.38
63009;BMP280;49099;28.428;-16.488;2022-12-18T04:43:02;98783.53;;;19.40
63009;BMP280;49099;28.428;-16.488;2022-12-18T04:45:31;98780.84;;;19.40
63009;BMP280;49099;28.428;-16.488;2022-12-18T04:47:59;98780.59;;;19.38
63009;BMP280;49099;28.428;-16.488;2022-12-18T04:50:27;98788.06;;;19.34
63009;BMP280;49099;28.428;-16.488;2022-12-18T04:52:55;98787.22;;;19.28
63009;BMP280;49099;28.428;-16.488;2022-12-18T04:55:22;98793.44;;;19.25
63009;BMP280;49099;28.428;-16.488;2022-12-18T04:57:49;98793.91;;;19.23
63009;BMP280;49099;28.428;-16.488;2022-12-18T05:00:17;98788.78;;;19.20
63009;BMP280;49099;28.428;-16.488;2022-12-18T05:02:44;98778.56;;;19.18
63009;BMP280;49099;28.428;-16.488;2022-12-18T05:05:11;98784.63;;;19.19
63009;BMP280;49099;28.428;-16.488;2022-12-18T05:07:38;98783.19;;;19.18
63009;BMP280;49099;28.428;-16.488;2022-12-18T05:10:07;98784.38;;;19.17
63009;BMP280;49099;28.428;-16.488;2022-12-18T05:12:35;98788.22;;;19.16
63009;BMP280;49099;28.428;-16.488;2022-12-18T05:15:22;98792.09;;;19.15
63009;BMP280;49099;28.428;-16.488;2022-12-18T05:17:49;98785.75;;;19.12
63009;BMP280;49099;28.428;-16.488;2022-12-18T05:20:16;98792.84;;;19.15
63009;BMP280;49099;28.428;-16.488;2022-12-18T05:22:44;98795.03;;;19.17
63009;BMP280;49099;28.428;-16.488;2022-12-18T05:25:12;98792.09;;;19.15
63009;BMP280;49099;28.428;-16.488;2022-12-18T05:27:39;98799.53;;;19.11
63009;BMP280;49099;28.428;-16.488;2022-12-18T05:30:06;98805.50;;;19.06
63009;BMP280;49099;28.428;-16.488;2022-12-18T05:32:34;98804.94;;;19.02
63009;BMP280;49099;28.428;-16.488;2022-12-18T05:35:01;98800.53;;;18.99
63009;BMP280;49099;28.428;-16.488;2022-12-18T05:37:28;98793.72;;;18.98
63009;BMP280;49099;28.428;-16.488;2022-12-18T05:39:55;98794.19;;;18.96
63009;BMP280;49099;28.428;-16.488;2022-12-18T05:42:22;98794.69;;;18.95
63009;BMP280;49099;28.428;-16.488;2022-12-18T05:44:50;98799.25;;;18.94
63009;BMP280;49099;28.428;-16.488;2022-12-18T05:47:17;98805.00;;;18.93
63009;BMP280;49099;28.428;-16.488;2022-12-18T05:49:44;98801.63;;;18.92
63009;BMP280;49099;28.428;-16.488;2022-12-18T05:52:11;98800.00;;;18.95
63009;BMP280;49099;28.428;-16.488;2022-12-18T05:54:38;98807.66;;;18.93
63009;BMP280;49099;28.428;-16.488;2022-12-18T05:57:06;98798.22;;;18.92
63009;BMP280;49099;28.428;-16.488;2022-12-18T05:59:33;98801.63;;;18.92
63009;BMP280;49099;28.428;-16.488;2022-12-18T06:02:00;98796.31;;;18.92
63009;BMP280;49099;28.428;-16.488;2022-12-18T06:04:27;98794.09;;;18.91
63009;BMP280;49099;28.428;-16.488;2022-12-18T06:06:55;98798.22;;;18.92
63009;BMP280;49099;28.428;-16.488;2022-12-18T06:09:22;98791.44;;;18.91
63009;BMP280;49099;28.428;-16.488;2022-12-18T06:11:51;98796.78;;;18.91
63009;BMP280;49099;28.428;-16.488;2022-12-18T06:14:18;98783.19;;;18.89
63009;BMP280;49099;28.428;-16.488;2022-12-18T06:16:45;98786.78;;;18.86
63009;BMP280;49099;28.428;-16.488;2022-12-18T06:19:15;98785.84;;;18.89
63009;BMP280;49099;28.428;-16.488;2022-12-18T06:21:42;98784.91;;;18.92
63009;BMP280;49099;28.428;-16.488;2022-12-18T06:24:10;98789.50;;;18.91
63009;BMP280;49099;28.428;-16.488;2022-12-18T06:26:38;98779.78;;;18.88
63009;BMP280;49099;28.428;-16.488;2022-12-18T06:29:05;98780.50;;;18.89
63009;BMP280;49099;28.428;-16.488;2022-12-18T06:31:32;98775.19;;;18.89
63009;BMP280;49099;28.428;-16.488;2022-12-18T06:34:02;98775.72;;;18.93
63009;BMP280;49099;28.428;-16.488;2022-12-18T06:36:30;98771.72;;;18.97
63009;BMP280;49099;28.428;-16.488;2022-12-18T06:38:58;98769.34;;;18.99
63009;BMP280;49099;28.428;-16.488;2022-12-18T06:41:25;98783.09;;;18.98
63009;BMP280;49099;28.428;-16.488;2022-12-18T06:43:52;98786.00;;;19.00
63009;BMP280;49099;28.428;-16.488;2022-12-18T06:46:25;98789.91;;;18.99
63009;BMP280;49099;28.428;-16.488;2022-12-18T06:48:52;98787.69;;;18.97
63009;BMP280;49099;28.428;-16.488;2022-12-18T06:51:21;98787.41;;;18.95
63009;BMP280;49099;28.428;-16.488;2022-12-18T06:53:48;98782.81;;;18.96
63009;BMP280;49099;28.428;-16.488;2022-12-18T06:56:16;98785.47;;;18.96
63009;BMP280;49099;28.428;-16.488;2022-12-18T06:58:43;98793.03;;;18.97
63009;BMP280;49099;28.428;-16.488;2022-12-18T07:01:11;98796.09;;;18.96
63009;BMP280;49099;28.428;-16.488;2022-12-18T07:03:41;98798.34;;;18.97
63009;BMP280;49099;28.428;-16.488;2022-12-18T07:06:17;98805.59;;;18.97
63009;BMP280;49099;28.428;-16.488;2022-12-18T07:08:45;98804.09;;;18.96
63009;BMP280;49099;28.428;-16.488;2022-12-18T07:11:13;98807.31;;;19.00
63009;BMP280;49099;28.428;-16.488;2022-12-18T07:13:40;98814.13;;;19.01
63009;BMP280;49099;28.428;-16.488;2022-12-18T07:16:11;98816.78;;;19.01
63009;BMP280;49099;28.428;-16.488;2022-12-18T07:18:47;98827.72;;;19.03
63009;BMP280;49099;28.428;-16.488;2022-12-18T07:21:17;98834.94;;;19.02
63009;BMP280;49099;28.428;-16.488;2022-12-18T07:23:44;98842.03;;;19.05
63009;BMP280;49099;28.428;-16.488;2022-12-18T07:26:17;98846.88;;;19.07
63009;BMP280;49099;28.428;-16.488;2022-12-18T07:28:45;98856.81;;;19.06
63009;BMP280;49099;28.428;-16.488;2022-12-18T07:31:15;98862.59;;;19.05
63009;BMP280;49099;28.428;-16.488;2022-12-18T07:33:42;98871.50;;;19.02
63009;BMP280;49099;28.428;-16.488;2022-12-18T07:36:10;98871.50;;;19.02
63009;BMP280;49099;28.428;-16.488;2022-12-18T07:38:37;98872.69;;;19.01
63009;BMP280;49099;28.428;-16.488;2022-12-18T07:41:10;98876.09;;;19.01
63009;BMP280;49099;28.428;-16.488;2022-12-18T07:43:38;98877.56;;;19.02
63009;BMP280;49099;28.428;-16.488;2022-12-18T07:46:08;98870.56;;;19.05
63009;BMP280;49099;28.428;-16.488;2022-12-18T07:48:37;98883.16;;;19.04
63009;BMP280;49099;28.428;-16.488;2022-12-18T07:51:06;98885.38;;;19.06
63009;BMP280;49099;28.428;-16.488;2022-12-18T07:53:34;98886.28;;;19.03
63009;BMP280;49099;28.428;-16.488;2022-12-18T07:56:04;98890.56;;;19.00
63009;BMP280;49099;28.428;-16.488;2022-12-18T07:58:51;98900.47;;;19.00
63009;BMP280;49099;28.428;-16.488;2022-12-18T08:01:19;98894.88;;;18.98
63009;BMP280;49099;28.428;-16.488;2022-12-18T08:03:46;98897.25;;;18.96
63009;BMP280;49099;28.428;-16.488;2022-12-18T08:06:15;98898.75;;;18.97
63009;BMP280;49099;28.428;-16.488;2022-12-18T08:08:43;98905.53;;;18.98
63009;BMP280;49099;28.428;-16.488;2022-12-18T08:11:10;98912.53;;;18.95
63009;BMP280;49099;28.428;-16.488;2022-12-18T08:13:37;98906.47;;;18.95
63009;BMP280;49099;28.428;-16.488;2022-12-18T08:16:06;98905.25;;;18.96
63009;BMP280;49099;28.428;-16.488;2022-12-18T08:18:35;98900.22;;;18.98
63009;BMP280;49099;28.428;-16.488;2022-12-18T08:21:13;98911.44;;;19.02
63009;BMP280;49099;28.428;-16.488;2022-12-18T08:23:41;98913.66;;;19.03
63009;BMP280;49099;28.428;-16.488;2022-12-18T08:26:12;98919.97;;;19.06
63009;BMP280;49099;28.428;-16.488;2022-12-18T08:28:40;98915.69;;;19.08
63009;BMP280;49099;28.428;-16.488;2022-12-18T08:31:08;98916.69;;;19.11
63009;BMP280;49099;28.428;-16.488;2022-12-18T08:33:36;98923.31;;;19.15
63009;BMP280;49099;28.428;-16.488;2022-12-18T08:36:05;98926.25;;;19.17
63009;BMP280;49099;28.428;-16.488;2022-12-18T08:38:33;98927.56;;;19.22
63009;BMP280;49099;28.428;-16.488;2022-12-18T08:41:02;98934.59;;;19.25
63009;BMP280;49099;28.428;-16.488;2022-12-18T08:43:29;98945.63;;;19.32
63009;BMP280;49099;28.428;-16.488;2022-12-18T08:46:15;98952.81;;;19.41
63009;BMP280;49099;28.428;-16.488;2022-12-18T08:48:42;98956.88;;;19.51
63009;BMP280;49099;28.428;-16.488;2022-12-18T08:51:10;98952.66;;;19.59
63009;BMP280;49099;28.428;-16.488;2022-12-18T08:53:38;98960.94;;;19.61
63009;BMP280;49099;28.428;-16.488;2022-12-18T08:56:06;98968.28;;;19.66
63009;BMP280;49099;28.428;-16.488;2022-12-18T08:58:33;98972.53;;;19.72
63009;BMP280;49099;28.428;-16.488;2022-12-18T09:01:01;98975.84;;;19.82
63009;BMP280;49099;28.428;-16.488;2022-12-18T09:03:29;98976.91;;;19.90
63009;BMP280;49099;28.428;-16.488;2022-12-18T09:05:56;98985.72;;;19.96
63009;BMP280;49099;28.428;-16.488;2022-12-18T09:08:23;98983.16;;;20.01
63009;BMP280;49099;28.428;-16.488;2022-12-18T09:10:51;98983.53;;;20.09
63009;BMP280;49099;28.428;-16.488;2022-12-18T09:13:18;98997.66;;;20.15
63009;BMP280;49099;28.428;-16.488;2022-12-18T09:15:48;98997.66;;;20.15
63009;BMP280;49099;28.428;-16.488;2022-12-18T09:18:17;98998.97;;;20.20
63009;BMP280;49099;28.428;-16.488;2022-12-18T09:20:45;98998.78;;;20.23
63009;BMP280;49099;28.428;-16.488;2022-12-18T09:23:13;98996.19;;;20.29
63009;BMP280;49099;28.428;-16.488;2022-12-18T09:25:40;99002.53;;;20.31
63009;BMP280;49099;28.428;-16.488;2022-12-18T09:28:13;99003.53;;;20.34
63009;BMP280;49099;28.428;-16.488;2022-12-18T09:30:45;99014.19;;;20.34
63009;BMP280;49099;28.428;-16.488;2022-12-18T09:33:13;99011.63;;;20.39
63009;BMP280;49099;28.428;-16.488;2022-12-18T09:35:41;99020.44;;;20.45
63009;BMP280;49099;28.428;-16.488;2022-12-18T09:38:13;99026.31;;;20.49
63009;BMP280;49099;28.428;-16.488;2022-12-18T09:40:52;99029.06;;;20.55
63009;BMP280;49099;28.428;-16.488;2022-12-18T09:43:26;99032.75;;;20.57
63009;BMP280;49099;28.428;-16.488;2022-12-18T09:46:04;99036.41;;;20.60
63009;BMP280;49099;28.428;-16.488;2022-12-18T09:48:44;99035.66;;;20.59
63009;BMP280;49099;28.428;-16.488;2022-12-18T09:51:50;99038.84;;;20.58
63009;BMP280;49099;28.428;-16.488;2022-12-18T09:54:47;99038.09;;;20.57
63009;BMP280;49099;28.428;-16.488;2022-12-18T09:57:19;99037.25;;;20.51
63009;BMP280;49099;28.428;-16.488;2022-12-18T09:59:54;99036.72;;;20.47
63009;BMP280;49099;28.428;-16.488;2022-12-18T10:02:26;99038.84;;;20.43
63009;BMP280;49099;28.428;-16.488;2022-12-18T10:05:15;99035.63;;;20.39
63009;BMP280;49099;28.428;-16.488;2022-12-18T10:07:55;99038.75;;;20.38
63009;BMP280;49099;28.428;-16.488;2022-12-18T10:13:42;99035.34;;;20.37
63009;BMP280;49099;28.428;-16.488;2022-12-18T10:16:35;99032.41;;;20.35
63009;BMP280;49099;28.428;-16.488;2022-12-18T10:19:35;99032.41;;;20.35
63009;BMP280;49099;28.428;-16.488;2022-12-18T10:22:29;99041.41;;;20.38
63009;BMP280;49099;28.428;-16.488;2022-12-18T10:27:32;99038.31;;;20.39
63009;BMP280;49099;28.428;-16.488;2022-12-18T10:30:03;99044.19;;;20.43
63009;BMP280;49099;28.428;-16.488;2022-12-18T10:32:32;99041.50;;;20.43
63009;BMP280;49099;28.428;-16.488;2022-12-18T10:34:59;99032.28;;;20.44
63009;BMP280;49099;28.428;-16.488;2022-12-18T10:37:29;99034.97;;;20.44
63009;BMP280;49099;28.428;-16.488;2022-12-18T10:40:12;99032.00;;;20.42
63009;BMP280;49099;28.428;-16.488;2022-12-18T10:43:03;99034.97;;;20.44
63009;BMP280;49099;28.428;-16.488;2022-12-18T10:45:31;99029.56;;;20.39
63009;BMP280;49099;28.428;-16.488;2022-12-18T10:47:58;99027.63;;;20.39
63009;BMP280;49099;28.428;-16.488;2022-12-18T10:50:31;99028.91;;;20.44
63009;BMP280;49099;28.428;-16.488;2022-12-18T10:53:22;99022.81;;;20.43
63009;BMP280;49099;28.428;-16.488;2022-12-18T10:55:51;99022.91;;;20.49
63009;BMP280;49099;28.428;-16.488;2022-12-18T10:58:32;99022.19;;;20.48
63009;BMP280;49099;28.428;-16.488;2022-12-18T11:06:10;99008.09;;;20.33
63009;BMP280;49099;28.428;-16.488;2022-12-18T11:08:39;99008.09;;;20.33
63009;BMP280;49099;28.428;-16.488;2022-12-18T11:11:22;99001.59;;;20.34
63009;BMP280;49099;28.428;-16.488;2022-12-18T11:14:13;99010.13;;;20.38
63009;BMP280;49099;28.428;-16.488;2022-12-18T11:16:46;98995.91;;;20.41
63009;BMP280;49099;28.428;-16.488;2022-12-18T11:19:39;99002.22;;;20.44
63009;BMP280;49099;28.428;-16.488;2022-12-18T11:25:02;98992.16;;;20.53
63009;BMP280;49099;28.428;-16.488;2022-12-18T11:27:55;99001.72;;;20.60
63009;BMP280;49099;28.428;-16.488;2022-12-18T11:33:12;99008.97;;;20.74
63009;BMP280;49099;28.428;-16.488;2022-12-18T11:40:49;99010.88;;;20.73
63009;BMP280;49099;28.428;-16.488;2022-12-18T11:43:29;99019.06;;;20.70
63009;BMP280;49099;28.428;-16.488;2022-12-18T11:46:03;99017.94;;;20.76
63009;BMP280;49099;28.428;-16.488;2022-12-18T11:48:52;99012.81;;;20.73
63009;BMP280;49099;28.428;-16.488;2022-12-18T11:51:27;99016.75;;;20.77
63009;BMP280;49099;28.428;-16.488;2022-12-18T11:53:56;99019.41;;;20.77
63009;BMP280;49099;28.428;-16.488;2022-12-18T11:56:32;99020.47;;;20.85
63009;BMP280;49099;28.428;-16.488;2022-12-18T12:04:45;99009.16;;;20.90
63009;BMP280;49099;28.428;-16.488;2022-12-18T12:10:32;99013.81;;;20.95
63009;BMP280;49099;28.428;-16.488;2022-12-18T12:21:39;98999.53;;;21.18
63009;BMP280;49099;28.428;-16.488;2022-12-18T12:38:24;98971.69;;;21.30
63009;BMP280;49099;28.428;-16.488;2022-12-18T12:40:59;98961.28;;;21.32
63009;BMP280;49099;28.428;-16.488;2022-12-18T12:43:43;98960.09;;;21.39
63009;BMP280;49099;28.428;-16.488;2022-12-18T12:46:18;98957.44;;;21.39
63009;BMP280;49099;28.428;-16.488;2022-12-18T12:49:00;98953.09;;;21.41
63009;BMP280;49099;28.428;-16.488;2022-12-18T12:51:32;98956.44;;;21.36
63009;BMP280;49099;28.428;-16.488;2022-12-18T12:54:01;98952.97;;;21.30
63009;BMP280;49099;28.428;-16.488;2022-12-18T12:56:41;98947.69;;;21.36
63009;BMP280;49099;28.428;-16.488;2022-12-18T13:08:02;98940.28;;;21.51
63009;BMP280;49099;28.428;-16.488;2022-12-18T13:10:34;98937.16;;;21.52
63009;BMP280;49099;28.428;-16.488;2022-12-18T13:13:03;98932.84;;;21.60
63009;BMP280;49099;28.428;-16.488;2022-12-18T13:16:03;98933.88;;;21.68
63009;BMP280;49099;28.428;-16.488;2022-12-18T13:18:32;98938.50;;;21.68
63009;BMP280;49099;28.428;-16.488;2022-12-18T13:23:35;98922.00;;;21.75
63009;BMP280;49099;28.428;-16.488;2022-12-18T13:34:18;98909.72;;;21.88
63009;BMP280;49099;28.428;-16.488;2022-12-18T13:36:56;98912.81;;;21.81
63009;BMP280;49099;28.428;-16.488;2022-12-18T13:39:33;98908.19;;;21.76
63009;BMP280;49099;28.428;-16.488;2022-12-18T13:44:40;98897.06;;;21.83
63009;BMP280;49099;28.428;-16.488;2022-12-18T13:47:34;98894.13;;;21.87
63009;BMP280;49099;28.428;-16.488;2022-12-18T13:50:04;98888.31;;;21.88
63009;BMP280;49099;28.428;-16.488;2022-12-18T13:52:36;98883.91;;;21.85
63009;BMP280;49099;28.428;-16.488;2022-12-18T13:55:10;98880.75;;;21.87
63009;BMP280;49099;28.428;-16.488;2022-12-18T13:57:42;98874.91;;;21.83
63009;BMP280;49099;28.428;-16.488;2022-12-18T14:00:33;98872.28;;;21.88
63009;BMP280;49099;28.428;-16.488;2022-12-18T14:03:00;98868.13;;;21.87
63009;BMP280;49099;28.428;-16.488;2022-12-18T14:05:33;98861.50;;;21.77
63009;BMP280;49099;28.428;-16.488;2022-12-18T14:08:15;98858.13;;;21.82
63009;BMP280;49099;28.428;-16.488;2022-12-18T14:10:47;98860.06;;;21.82
63009;BMP280;49099;28.428;-16.488;2022-12-18T14:15:47;98859.38;;;21.87
63009;BMP280;49099;28.428;-16.488;2022-12-18T14:18:50;98855.28;;;21.91
63009;BMP280;49099;28.428;-16.488;2022-12-18T14:21:23;98852.31;;;21.89
63009;BMP280;49099;28.428;-16.488;2022-12-18T14:24:23;98850.94;;;21.99
63009;BMP280;49099;28.428;-16.488;2022-12-18T14:26:50;98850.41;;;21.95
63009;BMP280;49099;28.428;-16.488;2022-12-18T14:29:22;98852.38;;;21.95
63009;BMP280;49099;28.428;-16.488;2022-12-18T14:32:12;98847.56;;;22.04
63009;BMP280;49099;28.428;-16.488;2022-12-18T14:37:14;98843.88;;;21.96
63009;BMP280;49099;28.428;-16.488;2022-12-18T14:39:58;98839.78;;;22.06
63009;BMP280;49099;28.428;-16.488;2022-12-18T14:42:32;98852.41;;;22.00
63009;BMP280;49099;28.428;-16.488;2022-12-18T14:50:40;98843.47;;;22.14
63009;BMP280;49099;28.428;-16.488;2022-12-18T14:53:21;98849.53;;;22.20
63009;BMP280;49099;28.428;-16.488;2022-12-18T14:55:50;98843.50;;;22.25
63009;BMP280;49099;28.428;-16.488;2022-12-18T14:58:18;98848.53;;;22.12
63009;BMP280;49099;28.428;-16.488;2022-12-18T15:00:45;98844.19;;;22.15
63009;BMP280;49099;28.428;-16.488;2022-12-18T15:03:20;98842.31;;;22.26
63009;BMP280;49099;28.428;-16.488;2022-12-18T15:05:48;98852.53;;;22.33
63009;BMP280;49099;28.428;-16.488;2022-12-18T15:08:35;98837.72;;;22.38
63009;BMP280;49099;28.428;-16.488;2022-12-18T15:11:03;98849.41;;;22.46
63009;BMP280;49099;28.428;-16.488;2022-12-18T15:13:42;98852.31;;;22.48
63009;BMP280;49099;28.428;-16.488;2022-12-18T15:16:11;98856.91;;;22.36
63009;BMP280;49099;28.428;-16.488;2022-12-18T15:18:41;98849.81;;;22.28
63009;BMP280;49099;28.428;-16.488;2022-12-18T15:21:11;98846.19;;;22.36
63009;BMP280;49099;28.428;-16.488;2022-12-18T15:24:01;98846.00;;;22.45
63009;BMP280;49099;28.428;-16.488;2022-12-18T15:26:36;98854.28;;;22.48
63009;BMP280;49099;28.428;-16.488;2022-12-18T15:29:03;98847.50;;;22.52
63009;BMP280;49099;28.428;-16.488;2022-12-18T15:31:32;98847.72;;;22.48
63009;BMP280;49099;28.428;-16.488;2022-12-18T15:34:10;98856.97;;;22.48
63009;BMP280;49099;28.428;-16.488;2022-12-18T15:36:39;98847.44;;;22.46
63009;BMP280;49099;28.428;-16.488;2022-12-18T15:39:09;98844.06;;;22.46
63009;BMP280;49099;28.428;-16.488;2022-12-18T15:41:37;98847.69;;;22.37
63009;BMP280;49099;28.428;-16.488;2022-12-18T15:44:22;98850.81;;;22.30
63009;BMP280;49099;28.428;-16.488;2022-12-18T15:46:49;98854.97;;;22.31
63009;BMP280;49099;28.428;-16.488;2022-12-18T15:49:17;98851.06;;;22.32
63009;BMP280;49099;28.428;-16.488;2022-12-18T15:51:44;98865.22;;;22.38
63009;BMP280;49099;28.428;-16.488;2022-12-18T15:54:14;98855.94;;;22.39
63009;BMP280;49099;28.428;-16.488;2022-12-18T15:56:42;98860.09;;;22.40
63009;BMP280;49099;28.428;-16.488;2022-12-18T15:59:28;98857.91;;;22.33
63009;BMP280;49099;28.428;-16.488;2022-12-18T16:01:56;98862.25;;;22.31
63009;BMP280;49099;28.428;-16.488;2022-12-18T16:04:23;98862.50;;;22.33
63009;BMP280;49099;28.428;-16.488;2022-12-18T16:06:51;98861.31;;;22.39
63009;BMP280;49099;28.428;-16.488;2022-12-18T16:09:38;98855.75;;;22.48
63009;BMP280;49099;28.428;-16.488;2022-12-18T16:12:06;98862.06;;;22.51